createdAt,value
2022-11-28T00:01:28.064Z,102022.31
2022-11-28T00:03:55.347Z,102023.16
2022-11-28T00:06:22.877Z,102015.28
2022-11-28T00:08:50.256Z,102016.13
2022-11-28T00:11:17.981Z,102011.72
2022-11-28T00:13:46.634Z,102003.84
2022-11-28T00:16:24.021Z,101997.72
2022-11-28T00:18:53.021Z,102006.56
2022-11-28T00:21:20.634Z,102008.31
2022-11-28T00:23:48.533Z,102006.56
2022-11-28T00:26:27.793Z,102000.44
2022-11-28T00:28:56.022Z,101986.47
2022-11-28T00:31:29.244Z,101994.31
2022-11-28T00:33:56.869Z,101995.19
2022-11-28T00:36:24.075Z,101991.69
2022-11-28T00:38:51.436Z,101996.94
2022-11-28T00:41:21.350Z,101995.25
2022-11-28T00:43:49.969Z,101996.97
2022-11-28T00:46:19.558Z,101996.09
2022-11-28T00:48:46.913Z,101995.25
2022-11-28T00:51:17.645Z,102001.31
2022-11-28T00:53:47.816Z,102001.41
2022-11-28T00:56:17.704Z,101995.38
2022-11-28T00:58:45.226Z,101984.09
2022-11-28T01:01:20.629Z,101973.69
2022-11-28T01:03:49.404Z,101975.47
2022-11-28T01:06:26.754Z,101977.22
2022-11-28T01:08:54.852Z,101980.72
2022-11-28T01:11:22.369Z,101975.53
2022-11-28T01:13:50.017Z,101969.44
2022-11-28T01:16:17.475Z,101965.91
2022-11-28T01:18:44.660Z,101973.72
2022-11-28T01:21:11.810Z,101965.91
2022-11-28T01:23:39.296Z,101968.50
2022-11-28T01:26:08.516Z,101975.47
2022-11-28T01:28:36.285Z,101963.34
2022-11-28T01:31:06.012Z,101957.28
2022-11-28T01:33:33.896Z,101959.84
2022-11-28T01:36:01.636Z,101952.03
2022-11-28T01:38:28.813Z,101948.53
2022-11-28T01:40:56.806Z,101951.16
2022-11-28T01:43:25.117Z,101942.50
2022-11-28T01:45:52.753Z,101941.59
2022-11-28T01:48:37.940Z,101945.13
2022-11-28T01:51:08.266Z,101937.28
2022-11-28T01:53:40.813Z,101935.59
2022-11-28T01:56:22.107Z,101929.44
2022-11-28T01:58:54.561Z,101920.75
2022-11-28T02:01:24.344Z,101931.22
2022-11-28T02:03:53.346Z,101928.59
2022-11-28T02:06:23.173Z,101914.72
2022-11-28T02:08:55.196Z,101903.44
2022-11-28T02:11:51.650Z,101902.56
2022-11-28T02:14:31.133Z,101898.28
2022-11-28T02:17:33.266Z,101903.50
2022-11-28T02:20:24.762Z,101900.91
2022-11-28T02:23:06.402Z,101900.88
2022-11-28T02:25:52.020Z,101899.13
2022-11-28T02:28:31.240Z,101891.28
2022-11-28T02:31:26.494Z,101894.75
2022-11-28T02:33:57.005Z,101889.56
2022-11-28T02:36:32.583Z,101894.81
2022-11-28T02:39:45.232Z,101890.41
2022-11-28T02:43:02.624Z,101895.59
2022-11-28T02:45:32.566Z,101897.34
2022-11-28T02:48:07.066Z,101896.47
2022-11-28T02:50:41.973Z,101886.84
2022-11-28T02:53:14.020Z,101889.41
2022-11-28T02:55:43.369Z,101890.28
2022-11-28T02:58:12.597Z,101891.13
2022-11-28T03:00:43.533Z,101891.09
2022-11-28T03:03:46.171Z,101895.41
2022-11-28T03:06:30.248Z,101889.28
2022-11-28T03:09:20.655Z,101883.16
2022-11-28T03:12:01.792Z,101877.91
2022-11-28T03:14:47.417Z,101877.00
2022-11-28T03:17:20.045Z,101873.53
2022-11-28T03:19:57.208Z,101884.88
2022-11-28T03:22:27.090Z,101884.88
2022-11-28T03:25:06.066Z,101880.50
2022-11-28T03:27:39.526Z,101872.66
2022-11-28T03:30:15.337Z,101879.59
2022-11-28T03:32:46.041Z,101876.94
2022-11-28T03:35:19.393Z,101877.75
2022-11-28T03:37:57.333Z,101870.78
2022-11-28T03:40:30.763Z,101869.88
2022-11-28T03:43:02.754Z,101868.16
2022-11-28T03:45:36.388Z,101852.44
2022-11-28T03:48:18.390Z,101856.00
2022-11-28T03:50:52.185Z,101861.22
2022-11-28T03:53:28.111Z,101854.19
2022-11-28T03:56:05.140Z,101861.16
2022-11-28T03:58:49.553Z,101851.56
2022-11-28T04:01:34.317Z,101846.34
2022-11-28T04:04:23.226Z,101846.38
2022-11-28T04:07:27.015Z,101847.19
2022-11-28T04:10:17.043Z,101843.75
2022-11-28T04:12:59.533Z,101833.25
2022-11-28T04:15:37.425Z,101842.81
2022-11-28T04:18:23.774Z,101828.84
2022-11-28T04:21:06.100Z,101834.00
2022-11-28T04:23:35.656Z,101834.88
2022-11-28T04:26:13.997Z,101829.63
2022-11-28T04:28:42.541Z,101821.84
2022-11-28T04:31:10.277Z,101826.19
2022-11-28T04:33:42.976Z,101834.91
2022-11-28T04:36:12.070Z,101829.69
2022-11-28T04:38:42.373Z,101831.47
2022-11-28T04:41:20.591Z,101841.03
2022-11-28T04:43:57.225Z,101834.06
2022-11-28T04:46:29.286Z,101840.13
2022-11-28T04:48:56.454Z,101832.31
2022-11-28T04:51:34.100Z,101828.03
2022-11-28T04:54:07.347Z,101820.13
2022-11-28T04:56:43.922Z,101829.75
2022-11-28T04:59:13.493Z,101830.56
2022-11-28T05:01:44.139Z,101830.56
2022-11-28T05:04:13.631Z,101828.81
2022-11-28T05:06:40.836Z,101835.78
2022-11-28T05:09:10.033Z,101829.75
2022-11-28T05:11:37.365Z,101821.03
2022-11-28T05:14:04.517Z,101828.84
2022-11-28T05:16:31.713Z,101821.03
2022-11-28T05:18:58.929Z,101826.25
2022-11-28T05:21:26.112Z,101821.00
2022-11-28T05:23:53.245Z,101822.69
2022-11-28T05:26:21.552Z,101820.09
2022-11-28T05:28:50.900Z,101814.84
2022-11-28T05:31:20.568Z,101808.81
2022-11-28T05:33:47.753Z,101801.84
2022-11-28T05:36:16.404Z,101808.72
2022-11-28T05:38:44.355Z,101805.22
2022-11-28T05:41:19.932Z,101813.03
2022-11-28T05:43:47.576Z,101797.28
2022-11-28T05:46:15.287Z,101802.53
2022-11-28T05:48:42.529Z,101800.78
2022-11-28T05:51:09.730Z,101788.53
2022-11-28T05:53:36.962Z,101791.16
2022-11-28T05:56:12.286Z,101791.97
2022-11-28T05:58:39.706Z,101802.47
2022-11-28T06:01:15.796Z,101790.22
2022-11-28T06:03:43.489Z,101794.53
2022-11-28T06:06:19.469Z,101797.97
2022-11-28T06:08:48.787Z,101797.91
2022-11-28T06:11:16.667Z,101792.59
2022-11-28T06:13:45.153Z,101793.38
2022-11-28T06:16:26.510Z,101792.47
2022-11-28T06:18:59.469Z,101788.16
2022-11-28T06:21:28.446Z,101791.59
2022-11-28T06:23:57.377Z,101784.56
2022-11-28T06:26:26.138Z,101788.78
2022-11-28T06:28:55.440Z,101780.13
2022-11-28T06:31:25.311Z,101783.47
2022-11-28T06:33:52.651Z,101772.22
2022-11-28T06:36:20.598Z,101776.44
2022-11-28T06:38:48.460Z,101782.47
2022-11-28T06:41:18.300Z,101787.72
2022-11-28T06:43:45.511Z,101786.81
2022-11-28T06:46:18.873Z,101788.53
2022-11-28T06:48:48.292Z,101785.84
2022-11-28T06:51:16.052Z,101781.47
2022-11-28T06:53:43.455Z,101787.63
2022-11-28T06:56:16.184Z,101777.16
2022-11-28T06:58:44.063Z,101777.94
2022-11-28T07:01:20.326Z,101772.72
2022-11-28T07:03:48.423Z,101776.16
2022-11-28T07:06:17.411Z,101776.94
2022-11-28T07:08:45.002Z,101773.41
2022-11-28T07:11:24.147Z,101766.44
2022-11-28T07:13:52.599Z,101770.69
2022-11-28T07:16:26.385Z,101756.56
2022-11-28T07:18:53.791Z,101752.16
2022-11-28T07:21:21.666Z,101752.09
2022-11-28T07:23:49.082Z,101752.06
2022-11-28T07:26:17.989Z,101751.91
2022-11-28T07:28:45.843Z,101745.81
2022-11-28T07:31:17.260Z,101740.44
2022-11-28T07:33:46.633Z,101738.63
2022-11-28T07:36:19.665Z,101736.00
2022-11-28T07:38:48.706Z,101727.25
2022-11-28T07:41:16.380Z,101720.94
2022-11-28T07:43:45.346Z,101725.22
2022-11-28T07:46:15.115Z,101726.13
2022-11-28T07:48:42.812Z,101722.53
2022-11-28T07:51:13.110Z,101717.06
2022-11-28T07:53:41.305Z,101714.41
2022-11-28T07:56:13.921Z,101715.22
2022-11-28T07:58:42.548Z,101713.53
2022-11-28T08:01:17.693Z,101718.47
2022-11-28T08:03:45.836Z,101712.28
2022-11-28T08:06:15.050Z,101714.66
2022-11-28T08:08:42.433Z,101709.38
2022-11-28T08:11:10.124Z,101714.88
2022-11-28T08:13:38.381Z,101718.97
2022-11-28T08:16:20.024Z,101721.59
2022-11-28T08:18:48.776Z,101722.22
2022-11-28T08:21:23.348Z,101718.66
2022-11-28T08:23:51.921Z,101719.72
2022-11-28T08:26:23.049Z,101716.13
2022-11-28T08:28:53.496Z,101722.81
2022-11-28T08:31:23.230Z,101729.00
2022-11-28T08:33:52.141Z,101734.13
2022-11-28T08:36:20.385Z,101728.72
2022-11-28T08:39:03.471Z,101727.53
2022-11-28T08:41:35.437Z,101725.63
2022-11-28T08:44:02.556Z,101730.75
2022-11-28T08:46:29.710Z,101729.72
2022-11-28T08:48:56.902Z,101712.13
2022-11-28T08:51:24.229Z,101722.69
2022-11-28T08:53:57.877Z,101718.97
2022-11-28T08:56:27.814Z,101724.41
2022-11-28T08:58:55.638Z,101724.56
2022-11-28T09:01:25.773Z,101720.22
2022-11-28T09:03:55.548Z,101716.25
2022-11-28T09:06:23.682Z,101715.25
2022-11-28T09:08:51.831Z,101717.59
2022-11-28T09:11:21.354Z,101714.94
2022-11-28T09:13:48.852Z,101706.22
2022-11-28T09:16:16.395Z,101707.06
2022-11-28T09:18:43.623Z,101706.06
2022-11-28T09:21:13.309Z,101710.47
2022-11-28T09:23:42.375Z,101707.97
2022-11-28T09:26:18.108Z,101711.47
2022-11-28T09:28:46.100Z,101717.19
2022-11-28T09:31:14.953Z,101718.84
2022-11-28T09:33:42.764Z,101714.31
2022-11-28T09:36:13.477Z,101723.16
2022-11-28T09:38:40.747Z,101722.00
2022-11-28T09:41:37.089Z,101727.34
2022-11-28T09:44:16.578Z,101722.09
2022-11-28T09:46:45.532Z,101711.22
2022-11-28T09:49:40.637Z,101703.19
2022-11-28T09:52:45.752Z,101701.84
2022-11-28T09:55:31.571Z,101707.28
2022-11-28T09:58:05.800Z,101700.63
2022-11-28T10:00:51.362Z,101691.66
2022-11-28T10:03:47.185Z,101695.31
2022-11-28T10:06:44.440Z,101703.34
2022-11-28T10:09:30.084Z,101695.25
2022-11-28T10:12:06.768Z,101688.94
2022-11-28T10:14:48.940Z,101685.25
2022-11-28T10:17:27.173Z,101689.44
2022-11-28T10:20:16.997Z,101687.72
2022-11-28T10:22:57.864Z,101687.38
2022-11-28T10:25:30.377Z,101682.81
2022-11-28T10:27:58.189Z,101687.19
2022-11-28T10:30:29.131Z,101676.75
2022-11-28T10:33:06.136Z,101670.19
2022-11-28T10:35:53.861Z,101661.69
2022-11-28T10:38:25.647Z,101639.84
2022-11-28T10:40:59.724Z,101657.09
2022-11-28T10:43:59.427Z,101652.97
2022-11-28T10:46:35.704Z,101652.59
2022-11-28T10:49:27.819Z,101653.44
2022-11-28T10:52:35.214Z,101650.34
2022-11-28T10:55:27.967Z,101640.88
2022-11-28T10:57:58.004Z,101635.34
2022-11-28T11:00:25.192Z,101630.28
2022-11-28T11:02:56.437Z,101622.19
2022-11-28T11:05:30.656Z,101627.19
2022-11-28T11:08:19.540Z,101623.41
2022-11-28T11:11:24.310Z,101616.00
2022-11-28T11:13:57.421Z,101626.34
2022-11-28T11:16:24.655Z,101624.53
2022-11-28T11:18:54.396Z,101613.22
2022-11-28T11:21:27.740Z,101620.50
2022-11-28T11:24:17.210Z,101615.03
2022-11-28T11:26:48.313Z,101611.75
2022-11-28T11:29:37.352Z,101597.34
2022-11-28T11:32:06.522Z,101600.16
2022-11-28T11:34:44.094Z,101593.91
2022-11-28T11:37:24.582Z,101593.09
2022-11-28T11:39:53.251Z,101589.13
2022-11-28T11:42:28.893Z,101590.06
2022-11-28T11:44:57.009Z,101590.69
2022-11-28T11:47:42.452Z,101588.00
2022-11-28T11:50:21.097Z,101585.34
2022-11-28T11:53:26.641Z,101593.09
2022-11-28T11:55:55.849Z,101589.38
2022-11-28T11:58:32.305Z,101587.88
2022-11-28T12:01:00.594Z,101590.16
2022-11-28T12:03:42.135Z,101583.72
2022-11-28T12:06:17.681Z,101582.88
2022-11-28T12:08:51.722Z,101582.88
2022-11-28T12:12:01.835Z,101571.25
2022-11-28T12:14:33.027Z,101555.97
2022-11-28T12:17:57.185Z,101561.75
2022-11-28T12:20:36.790Z,101557.88
2022-11-28T12:23:36.445Z,101548.06
2022-11-28T12:26:13.710Z,101542.09
2022-11-28T12:28:48.685Z,101529.91
2022-11-28T12:31:54.596Z,101522.00
2022-11-28T12:34:36.899Z,101518.72
2022-11-28T12:37:17.116Z,101519.28
2022-11-28T12:40:02.711Z,101513.44
2022-11-28T12:42:40.433Z,101517.31
2022-11-28T12:45:15.561Z,101516.41
2022-11-28T12:48:06.554Z,101514.69
2022-11-28T12:50:38.476Z,101513.47
2022-11-28T12:53:47.818Z,101510.16
2022-11-28T12:56:29.001Z,101500.19
2022-11-28T12:59:03.315Z,101496.28
2022-11-28T13:01:54.877Z,101497.97
2022-11-28T13:04:51.822Z,101496.69
2022-11-28T13:07:34.797Z,101487.63
2022-11-28T13:10:16.181Z,101487.56
2022-11-28T13:12:50.865Z,101489.47
2022-11-28T13:15:23.842Z,101487.25
2022-11-28T13:18:04.079Z,101498.19
2022-11-28T13:20:45.875Z,101487.25
2022-11-28T13:23:24.950Z,101492.81
2022-11-28T13:25:52.017Z,101485.00
2022-11-28T13:28:21.718Z,101489.41
2022-11-28T13:30:55.404Z,101480.34
2022-11-28T13:33:42.695Z,101478.97
2022-11-28T13:39:20.146Z,101487.44
2022-11-28T13:45:16.794Z,101472.97
2022-11-28T13:47:43.904Z,101471.53
2022-11-28T13:50:22.952Z,101470.94
2022-11-28T13:53:00.034Z,101469.91
2022-11-28T13:55:39.147Z,101463.22
2022-11-28T13:58:28.364Z,101457.56
2022-11-28T14:01:22.662Z,101459.09
2022-11-28T14:04:08.977Z,101465.34
2022-11-28T14:06:39.112Z,101469.78
2022-11-28T14:09:30.479Z,101466.94
2022-11-28T14:12:13.647Z,101458.19
2022-11-28T14:15:10.078Z,101447.81
2022-11-28T14:17:37.030Z,101467.94
2022-11-28T14:20:28.799Z,101457.53
2022-11-28T14:23:37.581Z,101458.53
2022-11-28T14:26:23.473Z,101452.81
2022-11-28T14:28:51.847Z,101452.81
2022-11-28T14:31:32.432Z,101454.53
2022-11-28T14:34:05.069Z,101457.16
2022-11-28T14:36:42.821Z,101463.44
2022-11-28T14:39:15.955Z,101460.09
2022-11-28T14:42:02.553Z,101450.38
2022-11-28T14:44:46.830Z,101450.31
2022-11-28T14:47:39.630Z,101461.22
2022-11-28T14:50:08.144Z,101465.97
2022-11-28T14:52:39.891Z,101461.97
2022-11-28T14:55:12.027Z,101463.09
2022-11-28T14:57:51.360Z,101461.06
2022-11-28T15:00:27.025Z,101462.03
2022-11-28T15:03:10.810Z,101461.16
2022-11-28T15:05:38.070Z,101463.03
2022-11-28T15:08:18.088Z,101464.81
2022-11-28T15:10:51.243Z,101467.88
2022-11-28T15:13:48.144Z,101470.66
2022-11-28T15:16:18.805Z,101469.94
2022-11-28T15:18:53.605Z,101474.34
2022-11-28T15:21:22.480Z,101478.34
2022-11-28T15:23:49.839Z,101473.91
2022-11-28T15:26:26.480Z,101476.69
2022-11-28T15:29:19.437Z,101468.66
2022-11-28T15:31:49.895Z,101478.50
2022-11-28T15:34:30.293Z,101485.84
2022-11-28T15:37:16.451Z,101487.44
2022-11-28T15:39:47.856Z,101478.91
2022-11-28T15:42:24.838Z,101484.06
2022-11-28T15:45:08.897Z,101475.31
2022-11-28T15:47:36.494Z,101481.59
2022-11-28T15:50:09.689Z,101483.19
2022-11-28T15:52:38.056Z,101481.47
2022-11-28T15:55:24.265Z,101485.88
2022-11-28T15:57:51.929Z,101484.94
2022-11-28T16:00:21.825Z,101483.19
2022-11-28T16:02:49.283Z,101484.22
2022-11-28T16:05:20.974Z,101492.53
2022-11-28T16:07:51.661Z,101481.66
2022-11-28T16:10:25.597Z,101487.16
2022-11-28T16:13:02.360Z,101493.16
2022-11-28T16:15:30.444Z,101491.38
2022-11-28T16:17:58.058Z,101479.72
2022-11-28T16:20:34.781Z,101478.97
2022-11-28T16:23:10.192Z,101474.47
2022-11-28T16:25:38.803Z,101485.88
2022-11-28T16:28:36.163Z,101479.03
2022-11-28T16:31:11.715Z,101484.06
2022-11-28T16:33:44.733Z,101481.47
2022-11-28T16:36:20.208Z,101489.31
2022-11-28T16:38:49.585Z,101484.03
2022-11-28T16:41:20.278Z,101486.59
2022-11-28T16:43:52.456Z,101490.06
2022-11-28T16:46:25.327Z,101490.69
2022-11-28T16:48:59.807Z,101489.88
2022-11-28T16:51:31.337Z,101491.59
2022-11-28T16:54:00.145Z,101487.13
2022-11-28T16:56:30.076Z,101488.91
2022-11-28T16:59:14.999Z,101488.09
2022-11-28T17:01:51.749Z,101493.31
2022-11-28T17:04:30.420Z,101491.84
2022-11-28T17:07:04.936Z,101486.59
2022-11-28T17:09:33.820Z,101486.44
2022-11-28T17:12:27.262Z,101487.44
2022-11-28T17:14:55.616Z,101488.09
2022-11-28T17:17:23.989Z,101480.97
2022-11-28T17:19:51.972Z,101484.59
2022-11-28T17:22:22.849Z,101481.22
2022-11-28T17:24:51.736Z,101486.31
2022-11-28T17:27:18.849Z,101496.84
2022-11-28T17:29:46.277Z,101487.22
2022-11-28T17:32:14.541Z,101487.41
2022-11-28T17:34:42.318Z,101485.63
2022-11-28T17:37:09.969Z,101489.88
2022-11-28T17:39:37.540Z,101482.56
2022-11-28T17:42:05.495Z,101475.91
2022-11-28T17:44:36.025Z,101482.03
2022-11-28T17:47:04.756Z,101482.38
2022-11-28T17:49:32.060Z,101484.09
2022-11-28T17:51:59.434Z,101475.69
2022-11-28T17:54:27.472Z,101474.97
2022-11-28T17:56:55.146Z,101467.03
2022-11-28T17:59:24.099Z,101469.69
2022-11-28T18:01:51.427Z,101463.66
2022-11-28T18:04:24.179Z,101464.56
2022-11-28T18:06:51.517Z,101464.75
2022-11-28T18:09:18.693Z,101458.47
2022-11-28T18:11:48.879Z,101451.72
2022-11-28T18:14:19.485Z,101451.81
2022-11-28T18:16:47.539Z,101440.38
2022-11-28T18:19:14.857Z,101449.28
2022-11-28T18:21:41.961Z,101449.53
2022-11-28T18:24:09.717Z,101448.81
2022-11-28T18:26:37.689Z,101454.09
2022-11-28T18:29:06.958Z,101457.63
2022-11-28T18:31:35.382Z,101457.69
2022-11-28T18:34:04.905Z,101466.47
2022-11-28T18:36:36.708Z,101463.06
2022-11-28T18:39:07.308Z,101463.97
2022-11-28T18:41:34.683Z,101467.59
2022-11-28T18:44:04.788Z,101462.41
2022-11-28T18:46:34.471Z,101458.91
2022-11-28T18:49:03.171Z,101451.19
2022-11-28T18:51:34.845Z,101453.03
2022-11-28T18:54:04.812Z,101458.31
2022-11-28T18:56:33.643Z,101463.03
2022-11-28T18:59:00.918Z,101449.97
2022-11-28T19:01:31.636Z,101452.84
2022-11-28T19:04:07.175Z,101460.97
2022-11-28T19:06:36.042Z,101453.94
2022-11-28T19:09:05.666Z,101461.97
2022-11-28T19:11:33.417Z,101468.25
2022-11-28T19:14:01.792Z,101458.41
2022-11-28T19:16:32.018Z,101465.22
2022-11-28T19:19:01.020Z,101458.16
2022-11-28T19:21:32.784Z,101457.97
2022-11-28T19:24:01.017Z,101462.97
2022-11-28T19:26:30.445Z,101464.59
2022-11-28T19:29:00.104Z,101468.13
2022-11-28T19:31:30.027Z,101463.88
2022-11-28T19:34:01.918Z,101465.50
2022-11-28T19:36:37.572Z,101468.84
2022-11-28T19:39:05.300Z,101476.00
2022-11-28T19:41:33.257Z,101473.19
2022-11-28T19:44:01.402Z,101474.97
2022-11-28T19:46:34.983Z,101466.31
2022-11-28T19:49:05.210Z,101468.94
2022-11-28T19:51:32.748Z,101461.13
2022-11-28T19:54:03.589Z,101468.06
2022-11-28T19:56:32.483Z,101469.72
2022-11-28T19:58:59.816Z,101464.91
2022-11-28T20:01:28.581Z,101464.97
2022-11-28T20:03:57.681Z,101464.25
2022-11-28T20:06:30.189Z,101466.97
2022-11-28T20:09:00.935Z,101473.38
2022-11-28T20:11:31.273Z,101470.81
2022-11-28T20:14:08.285Z,101473.50
2022-11-28T20:16:36.649Z,101471.81
2022-11-28T20:19:05.852Z,101463.75
2022-11-28T20:21:34.657Z,101461.13
2022-11-28T20:24:05.010Z,101456.75
2022-11-28T20:26:38.273Z,101463.94
2022-11-28T20:29:06.811Z,101461.31
2022-11-28T20:31:37.345Z,101451.50
2022-11-28T20:34:06.422Z,101455.03
2022-11-28T20:36:34.032Z,101463.63
2022-11-28T20:39:01.991Z,101457.59
2022-11-28T20:41:29.632Z,101460.28
2022-11-28T20:43:59.465Z,101467.53
2022-11-28T20:46:30.257Z,101463.06
2022-11-28T20:48:59.710Z,101471.94
2022-11-28T20:51:29.386Z,101468.50
2022-11-28T20:53:58.100Z,101458.09
2022-11-28T20:56:29.556Z,101458.28
2022-11-28T20:59:01.792Z,101455.53
2022-11-28T21:01:34.359Z,101456.44
2022-11-28T21:04:04.167Z,101459.94
2022-11-28T21:06:31.425Z,101465.16
2022-11-28T21:08:58.905Z,101455.53
2022-11-28T21:11:55.274Z,101457.38
2022-11-28T21:14:15.443Z,101458.28
2022-11-28T21:16:43.627Z,101452.84
2022-11-28T21:19:11.460Z,101453.63
2022-11-28T21:21:40.079Z,101449.38
2022-11-28T21:24:12.028Z,101449.50
2022-11-28T21:26:43.137Z,101448.44
2022-11-28T21:29:12.919Z,101447.44
2022-11-28T21:31:43.682Z,101451.06
2022-11-28T21:34:16.453Z,101452.94
2022-11-28T21:36:43.859Z,101450.25
2022-11-28T21:39:13.936Z,101446.88
2022-11-28T21:41:41.152Z,101453.63
2022-11-28T21:44:08.941Z,101448.44
2022-11-28T21:46:36.250Z,101444.91
2022-11-28T21:49:03.449Z,101438.81
2022-11-28T21:51:30.556Z,101435.28
2022-11-28T21:53:58.366Z,101444.81
2022-11-28T21:56:26.534Z,101438.59
2022-11-28T21:58:54.229Z,101434.38
2022-11-28T22:01:21.616Z,101435.22
2022-11-28T22:03:49.485Z,101449.97
2022-11-28T22:06:20.161Z,101440.41
2022-11-28T22:08:49.166Z,101438.69
2022-11-28T22:11:17.032Z,101430.81
2022-11-28T22:13:47.933Z,101425.84
2022-11-28T22:16:24.506Z,101433.25
2022-11-28T22:18:53.306Z,101432.44
2022-11-28T22:24:08.720Z,101443.06
2022-11-28T22:26:36.414Z,101437.88
2022-11-28T22:29:04.648Z,101441.22
2022-11-28T22:31:32.913Z,101438.59
2022-11-28T22:34:00.352Z,101436.84
2022-11-28T22:36:27.788Z,101434.16
2022-11-28T22:38:57.730Z,101440.19
2022-11-28T22:41:29.192Z,101432.44
2022-11-28T22:44:00.600Z,101432.38
2022-11-28T22:46:28.548Z,101428.00
2022-11-28T22:48:56.058Z,101428.78
2022-11-28T22:51:25.498Z,101414.81
2022-11-28T22:53:58.915Z,101418.44
2022-11-28T22:56:29.321Z,101416.72
2022-11-28T22:58:58.743Z,101421.19
2022-11-28T23:01:30.071Z,101423.94
2022-11-28T23:03:57.661Z,101422.38
2022-11-28T23:06:27.782Z,101423.34
2022-11-28T23:08:57.242Z,101419.09
2022-11-28T23:11:29.050Z,101421.72
2022-11-28T23:13:56.401Z,101411.13
2022-11-28T23:16:38.759Z,101417.19
2022-11-28T23:19:10.486Z,101420.72
2022-11-28T23:21:40.953Z,101418.09
2022-11-28T23:24:14.056Z,101416.31
2022-11-28T23:26:41.759Z,101413.38
2022-11-28T23:29:09.780Z,101415.94
2022-11-28T23:31:40.632Z,101412.41
2022-11-28T23:34:09.583Z,101411.69
2022-11-28T23:36:43.976Z,101405.38
2022-11-28T23:39:15.169Z,101402.75
2022-11-28T23:41:42.857Z,101404.44
2022-11-28T23:44:11.779Z,101399.16
2022-11-28T23:46:39.690Z,101395.72
2022-11-28T23:49:07.387Z,101401.03
2022-11-28T23:51:35.102Z,101408.97
2022-11-28T23:54:02.209Z,101398.38
2022-11-28T23:56:33.541Z,101395.78
2022-11-28T23:59:02.782Z,101395.03
